Time;durP1;ratioP1;P1;durP2;ratioP2;P2;SDS_P1;SDS_P2;PMS_P1;PMS_P2;Temp;Humidity;BMP_temperature;BMP_pressure;BME280_temperature;BME280_humidity;BME280_pressure;Samples;Min_cycle;Max_cycle;Signal;HPM_P1;HPM_P2
2022/09/06 00:01:16;;;;;;;2.80;2.50;;;;;;;18.72;100.00;101507.63;5011038;28;20017;-65
2022/09/06 00:03:41;;;;;;;2.95;2.75;;;;;;;18.78;100.00;101514.66;5029415;28;20117;-64
2022/09/06 00:06:13;;;;;;;3.63;3.03;;;;;;;18.83;100.00;101530.47;5029214;28;20577;-65
2022/09/06 00:08:38;;;;;;;4.80;3.40;;;;;;;18.76;100.00;101540.03;5028774;28;20552;-65
2022/09/06 00:11:04;;;;;;;4.43;3.10;;;;;;;18.67;100.00;101558.31;5029694;28;20028;-65
2022/09/06 00:13:30;;;;;;;3.92;3.58;;;;;;;18.62;100.00;101578.38;5029475;28;20040;-65
2022/09/06 00:15:55;;;;;;;3.25;2.95;;;;;;;18.55;100.00;101616.78;5029292;28;20029;-64
2022/09/06 00:18:20;;;;;;;4.68;4.28;;;;;;;18.40;100.00;101626.28;5028744;28;20492;-64
2022/09/06 00:20:46;;;;;;;4.93;3.95;;;;;;;18.33;100.00;101617.44;5029555;28;20041;-65
2022/09/06 00:23:11;;;;;;;4.65;3.95;;;;;;;18.26;100.00;101651.44;5028668;28;20020;-64
2022/09/06 00:25:36;;;;;;;4.55;4.15;;;;;;;18.23;100.00;101661.03;5029029;28;20079;-64
2022/09/06 00:28:04;;;;;;;4.88;4.22;;;;;;;18.12;100.00;101646.84;5029324;28;20029;-64
2022/09/06 00:30:31;;;;;;;5.13;4.25;;;;;;;18.11;100.00;101637.25;5028844;28;20065;-64
2022/09/06 00:32:57;;;;;;;4.60;4.20;;;;;;;18.14;100.00;101645.16;5028266;28;20040;-64
2022/09/06 00:35:24;;;;;;;6.43;4.90;;;;;;;18.22;100.00;101651.38;5028764;28;20409;-64
2022/09/06 00:37:51;;;;;;;4.82;4.38;;;;;;;18.30;100.00;101629.63;5028838;28;20063;-64
2022/09/06 00:40:16;;;;;;;4.82;3.85;;;;;;;18.36;100.00;101624.47;5028800;28;20092;-64
2022/09/06 00:42:42;;;;;;;4.55;4.15;;;;;;;18.43;100.00;101639.41;5028330;28;20413;-64
2022/09/06 00:45:09;;;;;;;6.80;4.28;;;;;;;18.52;100.00;101635.13;5028549;28;20037;-64
2022/09/06 00:47:38;;;;;;;5.97;4.15;;;;;;;18.56;100.00;101632.56;5028332;28;20111;-64
2022/09/06 00:50:04;;;;;;;4.85;4.28;;;;;;;18.58;100.00;101624.72;5028105;28;20041;-64
2022/09/06 00:52:31;;;;;;;5.60;4.50;;;;;;;18.56;100.00;101615.94;5028484;28;20470;-65
2022/09/06 00:54:57;;;;;;;5.07;4.68;;;;;;;18.48;100.00;101605.34;5027918;28;20148;-65
2022/09/06 00:57:26;;;;;;;4.97;4.30;;;;;;;18.43;100.00;101605.31;5010379;28;20029;-64
2022/09/06 00:59:53;;;;;;;5.15;4.65;;;;;;;18.41;100.00;101591.28;5028071;28;20025;-64
2022/09/06 01:02:19;;;;;;;4.97;4.50;;;;;;;18.36;100.00;101595.59;5028048;28;20144;-64
2022/09/06 01:04:47;;;;;;;5.03;4.63;;;;;;;18.36;100.00;101587.72;5027589;28;20069;-64
2022/09/06 01:07:42;;;;;;;5.13;4.63;;;;;;;18.34;100.00;101586.84;5027935;28;20025;-65
2022/09/06 01:10:49;;;;;;;4.63;4.22;;;;;;;18.32;100.00;101588.56;5028369;28;20036;-64
2022/09/06 01:13:52;;;;;;;6.45;4.75;;;;;;;18.30;100.00;101579.78;5027932;28;20044;-64
2022/09/06 01:16:34;;;;;;;4.95;4.50;;;;;;;18.34;100.00;101571.09;5028900;28;20032;-64
2022/09/06 01:19:09;;;;;;;5.93;4.72;;;;;;;18.36;100.00;101569.38;5027641;28;20111;-64
2022/09/06 01:21:48;;;;;;;4.65;4.25;;;;;;;18.37;100.00;101560.63;5028049;28;20032;-64
2022/09/06 01:24:25;;;;;;;5.50;5.00;;;;;;;18.40;100.00;101560.69;5027583;28;20021;-64
2022/09/06 01:27:14;;;;;;;4.70;4.30;;;;;;;18.45;100.00;101545.88;5027412;28;20194;-64
2022/09/06 01:29:45;;;;;;;5.32;4.82;;;;;;;18.46;100.00;101542.38;5026908;28;20549;-65
2022/09/06 01:32:28;;;;;;;;;;;;;;;18.46;100.00;101528.34;5028205;28;20028;-64
2022/09/06 01:35:05;;;;;;;5.57;5.07;;;;;;;18.42;100.00;101511.72;5027361;28;19921;-64
2022/09/06 01:37:31;;;;;;;7.38;5.63;;;;;;;18.40;100.00;101497.72;5009240;28;20112;-64
2022/09/06 01:39:57;;;;;;;5.93;4.97;;;;;;;18.38;100.00;101478.47;5026827;28;20457;-64
2022/09/06 01:42:26;;;;;;;5.90;5.40;;;;;;;18.36;100.00;101470.56;5027028;28;20107;-64
2022/09/06 01:44:55;;;;;;;6.00;5.50;;;;;;;18.35;100.00;101462.66;5027138;28;20037;-64
2022/09/06 01:47:42;;;;;;;6.10;5.57;;;;;;;18.17;100.00;101459.00;5026447;28;20021;-64
2022/09/06 01:50:51;;;;;;;6.18;5.68;;;;;;;17.98;100.00;101443.06;5027370;28;20032;-64
2022/09/06 01:53:23;;;;;;;6.38;5.78;;;;;;;17.73;100.00;101431.41;5027441;28;20124;-64
2022/09/06 01:56:07;;;;;;;6.53;6.03;;;;;;;17.63;100.00;101414.69;5027452;28;20055;-65
2022/09/06 01:59:06;;;;;;;6.57;5.97;;;;;;;17.56;100.00;101402.41;5027437;28;20184;-64
2022/09/06 02:01:47;;;;;;;6.93;6.18;;;;;;;17.61;100.00;101398.97;5027067;28;20025;-64
2022/09/06 02:04:24;;;;;;;6.88;6.20;;;;;;;17.56;100.00;101391.94;5027581;28;20025;-64
2022/09/06 02:06:59;;;;;;;6.70;6.10;;;;;;;17.60;100.00;101383.22;5027564;28;20049;-64
2022/09/06 02:09:29;;;;;;;6.47;5.88;;;;;;;17.61;100.00;101380.63;5027617;28;20029;-64
2022/09/06 02:12:01;;;;;;;6.38;5.78;;;;;;;17.67;100.00;101364.09;5027821;28;20592;-63
2022/09/06 02:14:35;;;;;;;7.13;6.45;;;;;;;17.71;100.00;101389.47;5026962;28;20466;-64
2022/09/06 02:17:03;;;;;;;7.40;6.80;;;;;;;17.69;100.00;101442.72;5027724;28;20053;-64
2022/09/06 02:19:42;;;;;;;6.90;6.20;;;;;;;17.66;100.00;101425.22;5027653;28;20022;-64
2022/09/06 02:22:11;;;;;;;6.38;5.78;;;;;;;17.70;100.00;101400.81;5027727;28;20136;-64
2022/09/06 02:24:39;;;;;;;6.40;5.90;;;;;;;17.75;100.00;101413.97;5030862;28;20022;-64
2022/09/06 02:27:05;;;;;;;5.55;5.05;;;;;;;17.81;100.00;101428.91;5031863;28;20021;-64
2022/09/06 02:29:32;;;;;;;6.45;5.70;;;;;;;17.87;100.00;101426.31;5030981;28;20265;-64
2022/09/06 02:32:00;;;;;;;5.85;5.35;;;;;;;17.92;100.00;101431.63;5031830;28;20144;-64
2022/09/06 02:34:25;;;;;;;6.72;6.07;;;;;;;17.94;100.00;101430.78;5031343;28;20401;-64
2022/09/06 02:36:51;;;;;;;6.38;5.78;;;;;;;17.93;100.00;101425.53;5031505;28;20381;-64
2022/09/06 02:39:16;;;;;;;7.03;5.82;;;;;;;17.90;100.00;101418.47;5030921;28;20025;-64
2022/09/06 02:41:44;;;;;;;6.50;5.90;;;;;;;17.88;100.00;101412.38;5031115;28;20399;-64
2022/09/06 02:44:09;;;;;;;6.03;5.45;;;;;;;17.89;100.00;101411.50;5031041;28;20026;-64
2022/09/06 02:46:35;;;;;;;6.30;5.70;;;;;;;17.91;100.00;101419.38;5031353;28;20439;-64
2022/09/06 02:49:00;;;;;;;6.20;5.68;;;;;;;17.88;100.00;101420.25;5030777;28;20028;-64
2022/09/06 02:51:25;;;;;;;6.20;5.47;;;;;;;17.84;100.00;101415.81;5031810;28;20094;-64
2022/09/06 02:53:51;;;;;;;6.10;5.50;;;;;;;17.79;100.00;101420.13;5031180;28;20021;-64
2022/09/06 02:56:16;;;;;;;6.10;5.60;;;;;;;17.75;100.00;101417.44;5031407;28;20048;-64
2022/09/06 02:58:41;;;;;;;6.40;5.80;;;;;;;17.73;100.00;101415.69;5030494;28;20036;-64
2022/09/06 03:01:07;;;;;;;6.88;6.28;;;;;;;17.68;100.00;101423.50;5031199;28;20027;-64
2022/09/06 03:03:32;;;;;;;6.32;5.60;;;;;;;17.65;100.00;101423.47;5031261;28;20029;-64
2022/09/06 03:05:57;;;;;;;6.50;5.90;;;;;;;17.61;100.00;101421.69;5031171;28;20096;-64
2022/09/06 03:08:25;;;;;;;6.90;6.20;;;;;;;17.50;100.00;101432.88;5030949;28;20025;-64
2022/09/06 03:10:52;;;;;;;7.90;7.13;;;;;;;17.43;100.00;101433.66;5030371;28;20033;-64
2022/09/06 03:13:17;;;;;;;8.25;7.47;;;;;;;17.37;100.00;101430.97;5031223;28;20021;-64
2022/09/06 03:15:43;;;;;;;6.93;6.30;;;;;;;17.35;100.00;101433.59;5030875;28;20458;-64
2022/09/06 03:18:08;;;;;;;7.25;6.55;;;;;;;17.35;100.00;101419.59;5030831;28;20051;-64
2022/09/06 03:20:34;;;;;;;8.20;6.78;;;;;;;17.34;100.00;101420.47;5030897;28;20033;-64
2022/09/06 03:22:59;;;;;;;7.45;6.75;;;;;;;17.33;100.00;101426.56;5029891;28;20071;-65
2022/09/06 03:25:25;;;;;;;7.32;6.63;;;;;;;17.32;100.00;101419.56;5030166;28;20047;-64
2022/09/06 03:27:51;;;;;;;7.18;6.60;;;;;;;17.28;100.00;101419.53;5030641;28;20025;-64
2022/09/06 03:30:16;;;;;;;7.47;6.78;;;;;;;17.27;100.00;101420.38;5030855;28;20091;-64
2022/09/06 03:32:42;;;;;;;7.55;6.85;;;;;;;17.25;100.00;101414.22;5030373;28;20022;-64
2022/09/06 03:35:08;;;;;;;9.05;6.60;;;;;;;17.20;100.00;101420.28;5012331;28;20056;-65
2022/09/06 03:37:34;;;;;;;7.47;6.78;;;;;;;17.13;100.00;101425.44;5029894;28;20025;-64
2022/09/06 03:39:59;;;;;;;7.47;6.88;;;;;;;17.13;100.00;101421.94;5029760;28;20118;-64
2022/09/06 03:42:26;;;;;;;7.03;6.43;;;;;;;17.14;100.00;101413.22;5029651;28;20046;-64
2022/09/06 03:44:52;;;;;;;6.45;5.97;;;;;;;17.13;100.00;101421.94;5030011;28;20018;-64
2022/09/06 03:47:18;;;;;;;7.25;6.65;;;;;;;17.11;100.00;101415.78;5029289;28;20408;-64
2022/09/06 03:49:44;;;;;;;7.30;6.43;;;;;;;17.10;100.00;101424.47;5029507;28;20033;-64
2022/09/06 03:52:09;;;;;;;7.40;6.70;;;;;;;17.09;100.00;101417.50;5011152;28;20029;-64
2022/09/06 03:54:34;;;;;;;7.93;7.22;;;;;;;17.05;100.00;101433.13;5029580;28;20037;-64
2022/09/06 03:57:00;;;;;;;7.75;7.10;;;;;;;17.05;100.00;101433.13;5029706;28;20096;-64
2022/09/06 03:59:25;;;;;;;7.10;6.40;;;;;;;17.04;100.00;101422.66;5029517;28;20487;-64
2022/09/06 04:01:50;;;;;;;8.02;7.32;;;;;;;17.02;100.00;101433.09;5029244;28;20091;-64
2022/09/06 04:04:15;;;;;;;7.15;6.55;;;;;;;16.99;100.00;101437.41;5029779;28;20521;-64
2022/09/06 04:06:41;;;;;;;8.25;7.38;;;;;;;16.96;100.00;101437.38;5028801;28;20022;-64
2022/09/06 04:09:06;;;;;;;7.75;6.97;;;;;;;16.96;100.00;101432.13;5029148;28;20071;-64
2022/09/06 04:11:31;;;;;;;7.55;6.85;;;;;;;16.95;100.00;101431.25;5029060;28;20061;-64
2022/09/06 04:13:57;;;;;;;7.65;6.95;;;;;;;16.92;100.00;101426.88;5028843;28;20080;-64
2022/09/06 04:16:22;;;;;;;7.72;7.03;;;;;;;16.88;100.00;101429.38;5028854;28;20030;-64
2022/09/06 04:18:47;;;;;;;8.18;7.47;;;;;;;16.84;100.00;101438.94;5029155;28;20470;-64
2022/09/06 04:21:12;;;;;;;8.15;7.35;;;;;;;16.84;100.00;101443.31;5029090;28;20060;-64
2022/09/06 04:23:38;;;;;;;7.30;6.72;;;;;;;16.84;100.00;101448.53;5028434;28;20099;-64
2022/09/06 04:26:03;;;;;;;6.25;5.70;;;;;;;16.80;100.00;101453.69;5028913;28;20504;-64
2022/09/06 04:28:28;;;;;;;6.55;5.97;;;;;;;16.77;100.00;101453.66;5028802;28;20389;-64
2022/09/06 04:30:59;;;;;;;7.03;6.43;;;;;;;16.73;100.00;101444.00;5016572;28;20091;-64
2022/09/06 04:33:25;;;;;;;7.22;6.63;;;;;;;16.69;100.00;101455.28;5028349;28;20037;-64
2022/09/06 04:35:52;;;;;;;7.78;7.07;;;;;;;16.67;100.00;101454.38;5027755;28;20014;-64
2022/09/06 04:38:18;;;;;;;6.95;6.35;;;;;;;16.64;100.00;101455.19;5028754;28;20025;-64
2022/09/06 04:40:43;;;;;;;7.47;6.78;;;;;;;16.61;100.00;101456.88;5031107;28;20047;-64
2022/09/06 04:43:08;;;;;;;7.28;6.68;;;;;;;16.54;100.00;101445.44;5034955;28;20017;-64
2022/09/06 04:45:33;;;;;;;8.98;8.18;;;;;;;16.51;100.00;101451.50;5027004;28;20033;-64
2022/09/06 04:47:59;;;;;;;9.20;8.18;;;;;;;16.47;100.00;101444.47;5027915;28;20473;-64
2022/09/06 04:50:24;;;;;;;8.02;7.32;;;;;;;16.46;100.00;101455.75;5026139;28;20044;-64
2022/09/06 04:52:49;;;;;;;8.38;7.72;;;;;;;16.43;100.00;101460.94;5027841;28;20039;-64
2022/09/06 04:55:15;;;;;;;8.43;7.72;;;;;;;16.40;100.00;101461.78;5029779;28;20774;-64
2022/09/06 04:57:40;;;;;;;10.00;9.13;;;;;;;16.41;100.00;101460.03;5025924;28;20108;-64
2022/09/06 05:00:06;;;;;;;9.73;8.93;;;;;;;16.39;100.00;101456.50;5024858;28;20052;-64
2022/09/06 05:02:31;;;;;;;9.60;8.73;;;;;;;16.35;100.00;101454.72;5025831;28;20080;-64
2022/09/06 05:04:56;;;;;;;10.43;9.43;;;;;;;16.30;100.00;101455.50;5025470;28;20194;-63
2022/09/06 05:07:22;;;;;;;10.52;9.68;;;;;;;16.27;100.00;101463.28;5026740;28;20029;-64
2022/09/06 05:09:47;;;;;;;10.98;9.90;;;;;;;16.26;100.00;101444.97;5027078;28;20106;-64
2022/09/06 05:12:13;;;;;;;11.02;9.93;;;;;;;16.25;100.00;101459.75;5039009;28;20028;-64
2022/09/06 05:14:38;;;;;;;10.88;10.02;;;;;;;16.21;100.00;101452.72;5025684;28;20059;-64
2022/09/06 05:17:03;;;;;;;10.60;9.70;;;;;;;16.22;100.00;101451.88;5027057;28;20049;-63
2022/09/06 05:19:29;;;;;;;10.27;9.43;;;;;;;16.23;100.00;101451.00;5026403;28;20029;-64
2022/09/06 05:21:54;;;;;;;10.98;9.98;;;;;;;16.25;100.00;101454.53;5028031;28;20022;-64
2022/09/06 05:24:19;;;;;;;10.90;9.93;;;;;;;16.26;100.00;101458.91;5026635;28;20044;-63
2022/09/06 05:26:45;;;;;;;10.63;9.73;;;;;;;16.29;100.00;101460.69;5027768;28;20073;-64
2022/09/06 05:29:10;;;;;;;10.70;9.80;;;;;;;16.31;100.00;101465.13;5027863;28;20021;-64
2022/09/06 05:31:35;;;;;;;11.15;10.15;;;;;;;16.32;100.00;101453.78;5028953;28;20116;-64
2022/09/06 05:34:01;;;;;;;11.68;10.68;;;;;;;16.35;100.00;101457.31;5025840;28;20496;-64
2022/09/06 05:36:28;;;;;;;10.07;9.20;;;;;;;16.37;100.00;101466.94;5035098;28;20021;-64
2022/09/06 05:38:54;;;;;;;11.38;10.25;;;;;;;16.39;100.00;101467.84;5035642;28;20090;-64
2022/09/06 05:41:21;;;;;;;10.93;9.93;;;;;;;16.41;100.00;101465.25;5029662;28;20107;-63
2022/09/06 05:43:46;;;;;;;12.00;10.95;;;;;;;16.43;100.00;101459.22;5027025;28;20333;-63
2022/09/06 05:46:12;;;;;;;11.75;10.52;;;;;;;16.46;100.00;101463.59;5026448;28;20032;-64
2022/09/06 05:48:38;;;;;;;12.00;10.88;;;;;;;16.49;100.00;101462.78;5024649;28;20044;-63
2022/09/06 05:51:11;;;;;;;11.93;10.50;;;;;;;16.53;100.00;101462.84;5026581;28;20025;-63
2022/09/06 05:53:42;;;;;;;11.65;10.73;;;;;;;16.58;100.00;101467.31;5025541;28;20034;-63
2022/09/06 05:56:09;;;;;;;11.65;10.63;;;;;;;16.60;100.00;101460.34;5026491;28;20025;-63
2022/09/06 05:58:35;;;;;;;12.18;11.07;;;;;;;16.68;100.00;101463.97;5027042;28;20461;-63
2022/09/06 06:01:28;;;;;;;12.20;10.95;;;;;;;16.73;100.00;101464.06;5028195;28;20040;-63
2022/09/06 06:03:59;;;;;;;12.23;11.13;;;;;;;16.79;100.00;101467.66;5024486;28;20061;-63
2022/09/06 06:06:27;;;;;;;11.05;9.93;;;;;;;16.85;100.00;101459.03;5027163;28;20036;-63
2022/09/06 06:08:52;;;;;;;11.32;10.27;;;;;;;16.93;100.00;101461.75;5026723;28;20025;-63
2022/09/06 06:11:18;;;;;;;10.75;9.80;;;;;;;17.01;100.00;101461.88;5027713;28;20030;-63
2022/09/06 06:13:43;;;;;;;11.13;10.00;;;;;;;17.09;100.00;101462.00;5026690;28;20505;-63
2022/09/06 06:16:14;;;;;;;10.50;9.60;;;;;;;17.15;100.00;101467.34;5026003;28;20026;-63
2022/09/06 06:18:40;;;;;;;11.15;10.25;;;;;;;17.23;100.00;101468.34;5025167;28;20521;-63
2022/09/06 06:21:26;;;;;;;9.77;8.88;;;;;;;17.31;100.00;101460.59;5025354;28;20029;-63
2022/09/06 06:23:54;;;;;;;8.85;8.15;;;;;;;17.42;100.00;101463.34;5024536;28;20038;-63
2022/09/06 06:26:20;;;;;;;9.93;9.13;;;;;;;17.51;100.00;101471.34;5025352;28;20060;-63
2022/09/06 06:28:45;;;;;;;10.40;9.38;;;;;;;17.59;100.00;101470.56;5025033;28;20097;-63
2022/09/06 06:31:11;;;;;;;9.35;8.55;;;;;;;17.66;100.00;101458.41;5026839;28;20116;-63
2022/09/06 06:33:38;;;;;;;9.68;8.77;;;;;;;17.74;100.00;101457.63;5027143;28;20025;-63
2022/09/06 06:36:24;;;;;;;9.00;8.25;;;;;;;17.89;100.00;101458.69;5026308;28;20059;-63
2022/09/06 06:38:52;;;;;;;9.27;8.38;;;;;;;17.98;100.00;101453.53;5027600;28;20477;-63
2022/09/06 06:41:20;;;;;;;9.55;8.65;;;;;;;18.10;100.00;101446.66;5027309;28;20045;-63
2022/09/06 06:43:46;;;;;;;8.77;8.07;;;;;;;18.19;100.00;101446.78;5026029;28;20377;-63
2022/09/06 06:46:13;;;;;;;8.30;6.68;;;;;;;18.33;100.00;101443.44;5027581;28;20032;-63
2022/09/06 06:48:40;;;;;;;8.07;7.30;;;;;;;18.46;100.00;101450.53;5026744;28;20057;-63
2022/09/06 06:51:06;;;;;;;7.35;6.65;;;;;;;18.57;100.00;101447.13;5026753;28;20109;-63
2022/09/06 06:53:32;;;;;;;7.28;6.57;;;;;;;18.74;100.00;101451.63;5026996;28;20040;-63
2022/09/06 06:55:58;;;;;;;7.70;7.07;;;;;;;18.89;100.00;101451.72;5026942;28;20022;-63
2022/09/06 06:58:23;;;;;;;8.10;7.20;;;;;;;19.09;100.00;101456.25;5027140;28;20038;-63
2022/09/06 07:00:49;;;;;;;7.35;6.65;;;;;;;19.34;100.00;101463.44;5026603;28;20091;-63
2022/09/06 07:03:14;;;;;;;7.07;6.30;;;;;;;19.62;100.00;101456.56;5026679;28;20041;-63
2022/09/06 07:05:42;;;;;;;6.75;6.25;;;;;;;19.85;100.00;101452.22;5026717;28;20462;-63
2022/09/06 07:08:08;;;;;;;8.15;5.70;;;;;;;20.07;100.00;101458.47;5026372;28;20421;-63
2022/09/06 07:10:33;;;;;;;7.55;6.78;;;;;;;20.30;100.00;101449.72;5029179;28;20021;-64
2022/09/06 07:12:59;;;;;;;6.22;5.72;;;;;;;20.51;100.00;101443.59;5030039;28;20018;-63
2022/09/06 07:15:24;;;;;;;6.80;5.25;;;;;;;20.73;99.02;101445.31;5030395;28;20028;-63
2022/09/06 07:17:49;;;;;;;6.18;5.47;;;;;;;20.96;96.83;101444.44;5030520;28;20031;-63
2022/09/06 07:20:15;;;;;;;5.78;5.22;;;;;;;21.23;97.40;101442.63;5030276;28;20029;-63
2022/09/06 07:22:40;;;;;;;6.80;6.10;;;;;;;21.59;97.56;101439.84;5029788;28;20087;-63
2022/09/06 07:25:07;;;;;;;7.43;5.53;;;;;;;21.97;90.76;101445.84;5030183;28;20429;-64
2022/09/06 07:27:33;;;;;;;7.60;5.47;;;;;;;22.26;90.70;101447.41;5030095;28;20129;-63
2022/09/06 07:29:58;;;;;;;5.90;4.90;;;;;;;22.68;90.44;101451.50;5030341;28;20111;-63
2022/09/06 07:32:24;;;;;;;5.70;4.43;;;;;;;23.11;86.62;101444.03;5029571;28;20029;-64
2022/09/06 07:34:49;;;;;;;5.20;4.80;;;;;;;23.56;84.35;101446.16;5030133;28;20045;-64
2022/09/06 07:37:14;;;;;;;5.30;4.90;;;;;;;23.91;79.36;101446.56;5029950;28;20042;-64
2022/09/06 07:39:40;;;;;;;5.55;4.93;;;;;;;24.08;78.47;101446.31;5029612;28;20152;-64
2022/09/06 07:42:05;;;;;;;5.32;4.82;;;;;;;24.41;76.88;101445.81;5029878;28;20174;-64
2022/09/06 07:44:31;;;;;;;5.22;4.00;;;;;;;24.72;75.60;101448.84;5030015;28;20040;-64
2022/09/06 07:46:56;;;;;;;4.72;4.32;;;;;;;25.08;74.27;101446.41;5029661;28;20409;-64
2022/09/06 07:49:21;;;;;;;5.20;4.80;;;;;;;25.24;71.43;101439.03;5029519;28;20537;-64
2022/09/06 07:51:47;;;;;;;4.63;4.22;;;;;;;25.41;69.94;101441.34;5016351;28;20132;-64
2022/09/06 07:54:13;;;;;;;4.90;4.50;;;;;;;25.54;68.68;101447.25;5028231;28;20025;-64
2022/09/06 07:56:38;;;;;;;5.72;4.45;;;;;;;25.65;66.78;101439.09;5029405;28;20463;-64
2022/09/06 07:59:04;;;;;;;4.95;4.03;;;;;;;25.72;66.47;101433.66;5029260;28;20032;-64
2022/09/06 08:01:33;;;;;;;4.18;3.60;;;;;;;25.78;65.31;101439.69;5029274;28;20371;-64
2022/09/06 08:04:00;;;;;;;3.63;3.33;;;;;;;25.90;66.03;101437.66;5028907;28;20025;-64
2022/09/06 08:06:28;;;;;;;4.55;3.08;;;;;;;26.17;66.13;101431.72;5029670;28;20036;-64
2022/09/06 08:08:53;;;;;;;7.68;3.45;;;;;;;26.33;63.40;101424.25;5029098;28;20034;-65
2022/09/06 08:11:20;;;;;;;5.05;3.20;;;;;;;26.52;62.66;101430.00;5029491;28;20037;-64
2022/09/06 08:13:50;;;;;;;3.70;3.40;;;;;;;26.78;62.28;101425.78;5029561;28;20063;-64
2022/09/06 08:16:16;;;;;;;5.70;2.97;;;;;;;27.16;61.16;101419.44;5028772;28;20069;-64
2022/09/06 08:18:42;;;;;;;3.83;2.97;;;;;;;27.24;59.66;101425.41;5029679;28;20115;-64
2022/09/06 08:21:12;;;;;;;3.90;2.67;;;;;;;27.41;59.30;101426.69;5025269;28;20025;-64
2022/09/06 08:23:42;;;;;;;4.40;2.80;;;;;;;27.44;57.89;101429.25;5018547;28;20053;-64
2022/09/06 08:26:08;;;;;;;3.60;3.30;;;;;;;27.50;58.65;101437.06;5029505;28;20032;-64
2022/09/06 08:28:33;;;;;;;2.85;2.53;;;;;;;27.20;56.81;101427.28;5029831;28;20021;-64
2022/09/06 08:31:06;;;;;;;2.78;2.20;;;;;;;26.84;57.48;101424.75;5029310;28;20040;-64
2022/09/06 08:33:32;;;;;;;3.88;2.20;;;;;;;26.66;57.90;101420.78;5028615;28;20060;-64
2022/09/06 08:35:58;;;;;;;3.28;2.05;;;;;;;26.44;58.29;101421.34;5011224;28;20104;-64
2022/09/06 08:38:24;;;;;;;3.88;1.92;;;;;;;26.09;59.55;101438.09;5029066;28;20029;-64
2022/09/06 08:40:51;;;;;;;3.58;1.80;;;;;;;25.86;58.75;101436.88;5028520;28;20037;-64
2022/09/06 08:43:19;;;;;;;2.42;1.50;;;;;;;25.68;59.31;101440.81;5028114;28;20103;-63
2022/09/06 08:45:49;;;;;;;3.17;1.73;;;;;;;25.21;60.63;101427.63;5028378;28;20048;-64
2022/09/06 08:48:15;;;;;;;3.40;1.60;;;;;;;25.30;63.56;101420.34;5029243;28;20095;-64
2022/09/06 08:50:48;;;;;;;2.15;1.60;;;;;;;25.33;61.17;101415.91;5010594;28;20021;-64
2022/09/06 08:53:17;;;;;;;2.42;1.60;;;;;;;25.73;60.85;101424.78;5028922;28;20029;-64
2022/09/06 08:55:58;;;;;;;2.17;1.33;;;;;;;25.98;58.94;101429.50;5028268;28;20083;-64
2022/09/06 08:58:38;;;;;;;;;;;;;;;26.21;58.03;101422.78;5028348;28;20063;-64
2022/09/06 09:01:10;;;;;;;2.17;1.38;;;;;;;26.50;56.99;101418.53;5028613;28;19960;-64
2022/09/06 09:03:43;;;;;;;2.22;1.67;;;;;;;26.60;56.60;101422.72;5028612;28;20086;-64
2022/09/06 09:06:09;;;;;;;3.20;1.70;;;;;;;26.82;57.21;101421.25;5027637;28;20517;-64
2022/09/06 09:08:46;;;;;;;2.42;1.60;;;;;;;26.83;55.50;101423.88;5028157;28;20040;-64
2022/09/06 09:11:18;;;;;;;3.05;1.50;;;;;;;26.53;55.70;101423.78;5028343;28;20642;-64
2022/09/06 09:13:46;;;;;;;4.30;1.50;;;;;;;26.68;56.36;101416.31;5028463;28;20040;-64
2022/09/06 09:16:13;;;;;;;1.83;1.60;;;;;;;26.90;55.22;101421.00;5028246;28;20409;-64
2022/09/06 09:18:42;;;;;;;2.58;1.60;;;;;;;26.56;55.20;101409.53;5028066;28;20029;-64
2022/09/06 09:21:09;;;;;;;2.33;1.40;;;;;;;26.67;55.92;101406.59;5028613;28;20135;-64
2022/09/06 09:23:34;;;;;;;4.05;1.48;;;;;;;26.83;56.30;101407.03;5028127;28;20208;-64
2022/09/06 09:26:06;;;;;;;1.20;1.10;;;;;;;26.69;54.90;101410.06;5028554;28;20167;-64
2022/09/06 09:28:32;;;;;;;2.05;1.20;;;;;;;26.83;56.16;101412.34;5009771;28;20029;-64
2022/09/06 09:30:57;;;;;;;2.13;1.42;;;;;;;26.74;55.41;101402.84;5027779;28;20033;-64
2022/09/06 09:33:26;;;;;;;3.85;1.85;;;;;;;26.64;56.05;101414.66;5027511;28;20078;-64
2022/09/06 09:35:52;;;;;;;3.42;1.30;;;;;;;26.61;55.80;101416.47;5027838;28;20377;-64
2022/09/06 09:38:39;;;;;;;2.65;1.33;;;;;;;26.92;55.53;101419.19;5027604;28;20029;-64
2022/09/06 09:41:07;;;;;;;2.03;1.48;;;;;;;27.11;56.59;101416.06;5027018;28;20049;-64
2022/09/06 09:43:36;;;;;;;2.33;2.05;;;;;;;27.19;54.75;101416.69;5027283;28;20591;-64
2022/09/06 09:46:12;;;;;;;1.80;1.35;;;;;;;27.14;54.57;101415.97;5027389;28;20071;-64
2022/09/06 09:48:39;;;;;;;3.40;1.42;;;;;;;27.20;54.62;101415.78;5027314;28;20124;-64
2022/09/06 09:51:20;;;;;;;4.47;1.65;;;;;;;27.23;54.90;101413.03;5027777;28;20021;-64
2022/09/06 09:53:50;;;;;;;2.78;1.92;;;;;;;26.97;54.54;101414.63;5027144;28;20065;-64
2022/09/06 09:56:15;;;;;;;2.05;1.60;;;;;;;26.97;55.87;101414.63;5027069;28;20029;-64
2022/09/06 09:58:41;;;;;;;3.25;1.60;;;;;;;27.00;55.97;101409.22;5027378;28;20087;-64
2022/09/06 10:01:28;;;;;;;2.85;1.48;;;;;;;27.16;55.90;101406.16;5027739;28;20113;-64
2022/09/06 10:04:04;;;;;;;3.30;1.50;;;;;;;27.24;54.95;101401.47;5027347;28;20550;-64
2022/09/06 10:06:30;;;;;;;1.48;1.38;;;;;;;27.41;55.06;101411.63;5027745;28;20025;-64
2022/09/06 10:08:56;;;;;;;3.00;1.67;;;;;;;27.60;54.06;101403.06;5027418;28;20036;-64
2022/09/06 10:11:46;;;;;;;1.52;1.33;;;;;;;27.75;54.53;101407.06;5027721;28;20025;-64
2022/09/06 10:14:29;;;;;;;2.33;1.70;;;;;;;27.38;53.33;101414.34;5026645;28;20163;-64
2022/09/06 10:16:55;;;;;;;2.08;1.42;;;;;;;27.47;53.79;101413.19;5017451;28;20022;-64
2022/09/06 10:19:29;;;;;;;2.55;1.40;;;;;;;27.37;53.25;101430.34;5024082;28;20032;-64
2022/09/06 10:22:01;;;;;;;2.38;1.60;;;;;;;27.45;54.15;101425.69;5027257;28;20049;-64
2022/09/06 10:24:58;;;;;;;3.25;1.67;;;;;;;27.42;54.06;101425.78;5026405;28;20083;-64
2022/09/06 10:27:27;;;;;;;3.22;1.63;;;;;;;27.63;53.75;101426.06;5027069;28;20111;-64
2022/09/06 10:30:02;;;;;;;4.63;2.20;;;;;;;27.46;53.45;101427.44;5027445;28;20036;-64
2022/09/06 10:33:14;;;;;;;5.25;2.05;;;;;;;27.65;54.28;101426.88;5026862;28;20427;-64
2022/09/06 10:35:40;;;;;;;2.63;1.48;;;;;;;27.91;54.06;101427.84;5026369;28;20044;-64
2022/09/06 10:38:35;;;;;;;3.22;2.05;;;;;;;27.96;53.78;101420.59;5026435;28;20028;-64
2022/09/06 10:41:09;;;;;;;2.72;1.90;;;;;;;27.99;53.71;101417.81;5022706;28;20037;-64
2022/09/06 10:43:44;;;;;;;3.50;1.60;;;;;;;28.03;53.96;101416.81;5026869;28;20147;-64
2022/09/06 10:46:20;;;;;;;4.97;2.03;;;;;;;28.10;52.57;101424.59;5030169;28;20053;-63
2022/09/06 10:48:47;;;;;;;4.40;1.70;;;;;;;28.00;53.61;101416.91;5030875;28;20068;-64
2022/09/06 10:51:37;;;;;;;3.75;2.17;;;;;;;28.00;52.99;101410.72;5031018;28;20028;-64
2022/09/06 10:54:10;;;;;;;3.72;1.65;;;;;;;27.93;53.02;101405.59;5031171;28;20455;-63
2022/09/06 10:56:44;;;;;;;2.33;1.50;;;;;;;27.90;53.14;101405.69;5030306;28;20025;-64
2022/09/06 10:59:20;;;;;;;5.25;1.85;;;;;;;28.12;53.53;101409.44;5030630;28;20436;-64
2022/09/06 11:02:10;;;;;;;3.30;2.28;;;;;;;28.27;52.24;101408.94;5031459;28;20029;-64
2022/09/06 11:04:40;;;;;;;5.27;2.23;;;;;;;28.15;52.74;101407.53;5013476;28;20036;-63
2022/09/06 11:07:28;;;;;;;4.60;2.38;;;;;;;28.29;52.93;101409.75;5030403;28;20276;-64
2022/09/06 11:10:01;;;;;;;4.22;2.28;;;;;;;28.40;51.94;101405.88;5031288;28;20499;-64
2022/09/06 11:12:47;;;;;;;4.13;2.17;;;;;;;28.40;51.91;101413.88;5030950;28;20029;-64
2022/09/06 11:15:14;;;;;;;5.50;2.42;;;;;;;28.04;52.28;101423.91;5030423;28;20183;-64
2022/09/06 11:17:51;;;;;;;4.72;2.00;;;;;;;28.09;53.33;101426.41;5030854;28;20049;-64
2022/09/06 11:21:02;;;;;;;2.70;2.08;;;;;;;28.21;52.92;101425.09;5031384;28;20448;-63
2022/09/06 11:23:49;;;;;;;5.18;2.22;;;;;;;28.47;51.51;101423.38;5009779;28;20073;-65
2022/09/06 11:26:33;;;;;;;3.33;1.77;;;;;;;28.72;51.07;101430.53;5030882;28;20072;-64
2022/09/06 11:29:03;;;;;;;4.03;2.03;;;;;;;28.79;49.97;101433.81;5030921;28;20140;-64
2022/09/06 11:31:32;;;;;;;4.37;2.40;;;;;;;28.94;49.44;101432.41;5030605;28;20013;-64